sensor_id;sensor_type;location;lat;lon;timestamp;temperature;humidity
22908;DHT22;11620;50.050;8.690;2023-03-31T00:02:28;9.40;99.90
22908;DHT22;11620;50.050;8.690;2023-03-31T00:05:15;9.40;99.90
22908;DHT22;11620;50.050;8.690;2023-03-31T00:08:03;9.50;99.90
22908;DHT22;11620;50.050;8.690;2023-03-31T00:10:50;9.60;99.90
22908;DHT22;11620;50.050;8.690;2023-03-31T00:13:37;9.50;99.90
22908;DHT22;11620;50.050;8.690;2023-03-31T00:16:23;9.50;99.90
22908;DHT22;11620;50.050;8.690;2023-03-31T00:19:11;9.50;99.90
22908;DHT22;11620;50.050;8.690;2023-03-31T00:22:03;9.60;99.90
22908;DHT22;11620;50.050;8.690;2023-03-31T00:24:50;9.40;99.90
22908;DHT22;11620;50.050;8.690;2023-03-31T00:27:36;9.40;99.90
22908;DHT22;11620;50.050;8.690;2023-03-31T00:30:23;9.50;99.90
22908;DHT22;11620;50.050;8.690;2023-03-31T00:33:09;9.40;99.90
22908;DHT22;11620;50.050;8.690;2023-03-31T00:35:55;9.30;99.90
22908;DHT22;11620;50.050;8.690;2023-03-31T00:38:42;9.40;99.90
22908;DHT22;11620;50.050;8.690;2023-03-31T00:41:31;9.30;99.90
22908;DHT22;11620;50.050;8.690;2023-03-31T00:44:19;9.20;99.90
22908;DHT22;11620;50.050;8.690;2023-03-31T00:47:16;9.30;99.90
22908;DHT22;11620;50.050;8.690;2023-03-31T00:50:09;9.40;99.90
22908;DHT22;11620;50.050;8.690;2023-03-31T00:53:09;9.50;99.90
22908;DHT22;11620;50.050;8.690;2023-03-31T00:56:01;9.50;99.90
22908;DHT22;11620;50.050;8.690;2023-03-31T00:58:49;9.30;99.90
22908;DHT22;11620;50.050;8.690;2023-03-31T01:01:38;9.20;99.90
22908;DHT22;11620;50.050;8.690;2023-03-31T01:04:32;9.20;99.90
22908;DHT22;11620;50.050;8.690;2023-03-31T01:07:25;9.20;99.90
22908;DHT22;11620;50.050;8.690;2023-03-31T01:10:15;9.20;99.90
22908;DHT22;11620;50.050;8.690;2023-03-31T01:13:02;9.20;99.90
22908;DHT22;11620;50.050;8.690;2023-03-31T01:15:49;9.00;99.90
22908;DHT22;11620;50.050;8.690;2023-03-31T01:18:36;9.00;99.90
22908;DHT22;11620;50.050;8.690;2023-03-31T01:21:43;8.90;99.90
22908;DHT22;11620;50.050;8.690;2023-03-31T01:37:17;8.80;99.90
22908;DHT22;11620;50.050;8.690;2023-03-31T01:43:22;8.90;99.90
22908;DHT22;11620;50.050;8.690;2023-03-31T01:53:00;8.90;99.90
22908;DHT22;11620;50.050;8.690;2023-03-31T02:01:55;8.90;99.90
22908;DHT22;11620;50.050;8.690;2023-03-31T02:04:49;9.00;99.90
22908;DHT22;11620;50.050;8.690;2023-03-31T02:10:54;9.00;99.90
22908;DHT22;11620;50.050;8.690;2023-03-31T02:13:44;9.00;99.90
22908;DHT22;11620;50.050;8.690;2023-03-31T02:16:34;9.00;99.90
22908;DHT22;11620;50.050;8.690;2023-03-31T02:19:25;8.90;99.90
22908;DHT22;11620;50.050;8.690;2023-03-31T02:22:13;9.00;99.90
22908;DHT22;11620;50.050;8.690;2023-03-31T02:25:03;8.90;99.90
22908;DHT22;11620;50.050;8.690;2023-03-31T02:28:01;8.90;99.90
22908;DHT22;11620;50.050;8.690;2023-03-31T02:33:47;8.90;99.90
22908;DHT22;11620;50.050;8.690;2023-03-31T02:36:34;8.90;99.90
22908;DHT22;11620;50.050;8.690;2023-03-31T02:39:27;8.90;99.90
22908;DHT22;11620;50.050;8.690;2023-03-31T02:42:14;8.90;99.90
22908;DHT22;11620;50.050;8.690;2023-03-31T02:45:05;8.80;99.90
22908;DHT22;11620;50.050;8.690;2023-03-31T02:47:51;8.80;99.90
22908;DHT22;11620;50.050;8.690;2023-03-31T03:06:19;8.40;99.90
22908;DHT22;11620;50.050;8.690;2023-03-31T03:12:16;8.40;99.90
22908;DHT22;11620;50.050;8.690;2023-03-31T03:15:12;8.40;99.90
22908;DHT22;11620;50.050;8.690;2023-03-31T03:17:58;8.50;99.90
22908;DHT22;11620;50.050;8.690;2023-03-31T03:20:45;8.40;99.90
22908;DHT22;11620;50.050;8.690;2023-03-31T03:23:34;8.50;99.90
22908;DHT22;11620;50.050;8.690;2023-03-31T03:26:20;8.50;99.90
22908;DHT22;11620;50.050;8.690;2023-03-31T03:29:08;8.50;99.90
22908;DHT22;11620;50.050;8.690;2023-03-31T03:31:54;8.60;99.90
22908;DHT22;11620;50.050;8.690;2023-03-31T03:34:41;8.60;99.90
22908;DHT22;11620;50.050;8.690;2023-03-31T03:37:28;8.60;99.90
22908;DHT22;11620;50.050;8.690;2023-03-31T03:40:15;8.60;99.90
22908;DHT22;11620;50.050;8.690;2023-03-31T03:43:02;8.60;99.90
22908;DHT22;11620;50.050;8.690;2023-03-31T03:45:49;8.60;99.90
22908;DHT22;11620;50.050;8.690;2023-03-31T03:48:36;8.70;99.90
22908;DHT22;11620;50.050;8.690;2023-03-31T03:51:22;8.60;99.90
22908;DHT22;11620;50.050;8.690;2023-03-31T03:54:08;8.70;99.90
22908;DHT22;11620;50.050;8.690;2023-03-31T03:56:55;8.80;99.90
22908;DHT22;11620;50.050;8.690;2023-03-31T03:59:41;8.70;99.90
22908;DHT22;11620;50.050;8.690;2023-03-31T04:02:27;8.70;99.90
22908;DHT22;11620;50.050;8.690;2023-03-31T04:05:14;8.60;99.90
22908;DHT22;11620;50.050;8.690;2023-03-31T04:08:00;8.60;99.90
22908;DHT22;11620;50.050;8.690;2023-03-31T04:10:48;8.60;99.90
22908;DHT22;11620;50.050;8.690;2023-03-31T04:13:34;8.60;99.90
22908;DHT22;11620;50.050;8.690;2023-03-31T04:16:21;8.60;99.90
22908;DHT22;11620;50.050;8.690;2023-03-31T04:19:08;8.60;99.90
22908;DHT22;11620;50.050;8.690;2023-03-31T04:21:57;8.50;99.90
22908;DHT22;11620;50.050;8.690;2023-03-31T04:24:47;8.50;99.90
22908;DHT22;11620;50.050;8.690;2023-03-31T04:27:37;8.40;99.90
22908;DHT22;11620;50.050;8.690;2023-03-31T04:30:25;8.50;99.90
22908;DHT22;11620;50.050;8.690;2023-03-31T04:33:15;8.30;99.90
22908;DHT22;11620;50.050;8.690;2023-03-31T04:36:02;8.40;99.90
22908;DHT22;11620;50.050;8.690;2023-03-31T04:38:52;8.40;99.90
22908;DHT22;11620;50.050;8.690;2023-03-31T04:41:41;8.50;99.90
22908;DHT22;11620;50.050;8.690;2023-03-31T04:44:28;8.50;99.90
22908;DHT22;11620;50.050;8.690;2023-03-31T04:47:14;8.50;99.90
22908;DHT22;11620;50.050;8.690;2023-03-31T04:50:01;8.50;99.90
22908;DHT22;11620;50.050;8.690;2023-03-31T04:52:47;8.60;99.90
22908;DHT22;11620;50.050;8.690;2023-03-31T04:55:34;8.70;99.90
22908;DHT22;11620;50.050;8.690;2023-03-31T04:58:20;8.60;99.90
22908;DHT22;11620;50.050;8.690;2023-03-31T05:01:07;8.70;99.90
22908;DHT22;11620;50.050;8.690;2023-03-31T05:03:53;8.70;99.90
22908;DHT22;11620;50.050;8.690;2023-03-31T05:06:39;8.70;99.90
22908;DHT22;11620;50.050;8.690;2023-03-31T05:09:26;8.60;99.90
22908;DHT22;11620;50.050;8.690;2023-03-31T05:12:12;8.60;99.90
22908;DHT22;11620;50.050;8.690;2023-03-31T05:14:58;8.60;99.90
22908;DHT22;11620;50.050;8.690;2023-03-31T05:17:45;8.70;99.90
22908;DHT22;11620;50.050;8.690;2023-03-31T05:20:31;8.60;99.90
22908;DHT22;11620;50.050;8.690;2023-03-31T05:23:17;8.50;99.90
22908;DHT22;11620;50.050;8.690;2023-03-31T05:26:04;8.60;99.90
22908;DHT22;11620;50.050;8.690;2023-03-31T05:28:51;8.40;99.90
22908;DHT22;11620;50.050;8.690;2023-03-31T05:31:38;8.40;99.90
22908;DHT22;11620;50.050;8.690;2023-03-31T05:34:24;8.30;99.90
22908;DHT22;11620;50.050;8.690;2023-03-31T05:37:10;8.30;99.90
22908;DHT22;11620;50.050;8.690;2023-03-31T05:39:57;8.30;99.90
22908;DHT22;11620;50.050;8.690;2023-03-31T05:42:43;8.30;99.90
22908;DHT22;11620;50.050;8.690;2023-03-31T05:45:30;8.20;99.90
22908;DHT22;11620;50.050;8.690;2023-03-31T05:48:16;8.20;99.90
22908;DHT22;11620;50.050;8.690;2023-03-31T05:51:03;8.10;99.90
22908;DHT22;11620;50.050;8.690;2023-03-31T05:53:49;8.10;99.90
22908;DHT22;11620;50.050;8.690;2023-03-31T05:56:36;8.00;99.90
22908;DHT22;11620;50.050;8.690;2023-03-31T05:59:22;7.90;99.90
22908;DHT22;11620;50.050;8.690;2023-03-31T06:02:12;8.00;99.90
22908;DHT22;11620;50.050;8.690;2023-03-31T06:04:58;8.10;99.90
22908;DHT22;11620;50.050;8.690;2023-03-31T06:07:44;8.10;99.90
22908;DHT22;11620;50.050;8.690;2023-03-31T06:10:31;8.20;99.90
22908;DHT22;11620;50.050;8.690;2023-03-31T06:13:17;8.20;99.90
22908;DHT22;11620;50.050;8.690;2023-03-31T06:16:04;8.30;99.90
22908;DHT22;11620;50.050;8.690;2023-03-31T06:18:50;8.40;99.90
22908;DHT22;11620;50.050;8.690;2023-03-31T06:21:38;8.30;99.90
22908;DHT22;11620;50.050;8.690;2023-03-31T06:24:24;8.30;99.90
22908;DHT22;11620;50.050;8.690;2023-03-31T06:27:11;8.10;99.90
22908;DHT22;11620;50.050;8.690;2023-03-31T06:29:57;8.20;99.90
22908;DHT22;11620;50.050;8.690;2023-03-31T06:32:43;8.20;99.90
22908;DHT22;11620;50.050;8.690;2023-03-31T06:35:30;8.20;99.90
22908;DHT22;11620;50.050;8.690;2023-03-31T06:38:16;8.20;99.90
22908;DHT22;11620;50.050;8.690;2023-03-31T06:41:03;8.30;99.90
22908;DHT22;11620;50.050;8.690;2023-03-31T06:43:50;8.30;99.90
22908;DHT22;11620;50.050;8.690;2023-03-31T06:46:36;8.20;99.90
22908;DHT22;11620;50.050;8.690;2023-03-31T06:49:22;8.20;99.90
22908;DHT22;11620;50.050;8.690;2023-03-31T06:52:09;8.20;99.90
22908;DHT22;11620;50.050;8.690;2023-03-31T06:54:55;8.10;99.90
22908;DHT22;11620;50.050;8.690;2023-03-31T06:57:41;8.20;99.90
22908;DHT22;11620;50.050;8.690;2023-03-31T07:00:28;8.20;99.90
22908;DHT22;11620;50.050;8.690;2023-03-31T07:03:14;8.20;99.90
22908;DHT22;11620;50.050;8.690;2023-03-31T07:06:07;8.30;99.90
22908;DHT22;11620;50.050;8.690;2023-03-31T07:08:53;8.30;99.90
22908;DHT22;11620;50.050;8.690;2023-03-31T07:11:39;8.30;99.90
22908;DHT22;11620;50.050;8.690;2023-03-31T07:14:26;8.40;99.90
22908;DHT22;11620;50.050;8.690;2023-03-31T07:17:12;8.40;99.90
22908;DHT22;11620;50.050;8.690;2023-03-31T07:19:58;8.40;99.90
22908;DHT22;11620;50.050;8.690;2023-03-31T07:22:46;8.30;99.90
22908;DHT22;11620;50.050;8.690;2023-03-31T07:25:34;8.30;99.90
22908;DHT22;11620;50.050;8.690;2023-03-31T07:28:21;8.20;99.90
22908;DHT22;11620;50.050;8.690;2023-03-31T07:31:13;8.30;99.90
22908;DHT22;11620;50.050;8.690;2023-03-31T07:34:01;8.30;99.90
22908;DHT22;11620;50.050;8.690;2023-03-31T07:36:47;8.30;99.90
22908;DHT22;11620;50.050;8.690;2023-03-31T07:39:34;8.20;99.90
22908;DHT22;11620;50.050;8.690;2023-03-31T07:42:21;8.20;99.90
22908;DHT22;11620;50.050;8.690;2023-03-31T07:45:09;8.20;99.90
22908;DHT22;11620;50.050;8.690;2023-03-31T07:47:55;8.20;99.90
22908;DHT22;11620;50.050;8.690;2023-03-31T07:50:42;8.10;99.90
22908;DHT22;11620;50.050;8.690;2023-03-31T07:53:28;8.00;99.90
22908;DHT22;11620;50.050;8.690;2023-03-31T07:56:14;8.00;99.90
22908;DHT22;11620;50.050;8.690;2023-03-31T07:59:02;8.00;99.90
22908;DHT22;11620;50.050;8.690;2023-03-31T08:01:48;8.10;99.90
22908;DHT22;11620;50.050;8.690;2023-03-31T08:04:34;8.20;99.90
22908;DHT22;11620;50.050;8.690;2023-03-31T08:07:20;8.20;99.90
22908;DHT22;11620;50.050;8.690;2023-03-31T08:47:19;9.20;99.90
22908;DHT22;11620;50.050;8.690;2023-03-31T08:50:22;9.10;99.90
22908;DHT22;11620;50.050;8.690;2023-03-31T08:53:16;8.80;99.90
22908;DHT22;11620;50.050;8.690;2023-03-31T08:56:08;8.80;99.90
22908;DHT22;11620;50.050;8.690;2023-03-31T08:59:00;8.80;99.90
22908;DHT22;11620;50.050;8.690;2023-03-31T09:17:23;10.10;99.90
22908;DHT22;11620;50.050;8.690;2023-03-31T09:20:18;10.80;99.90
22908;DHT22;11620;50.050;8.690;2023-03-31T09:26:03;11.10;99.90
22908;DHT22;11620;50.050;8.690;2023-03-31T09:28:51;10.40;99.90
22908;DHT22;11620;50.050;8.690;2023-03-31T09:31:41;10.20;99.90
22908;DHT22;11620;50.050;8.690;2023-03-31T09:34:31;10.00;99.90
22908;DHT22;11620;50.050;8.690;2023-03-31T09:37:18;9.90;99.90
22908;DHT22;11620;50.050;8.690;2023-03-31T09:40:05;10.00;99.90
22908;DHT22;11620;50.050;8.690;2023-03-31T09:43:05;10.20;99.90
22908;DHT22;11620;50.050;8.690;2023-03-31T09:45:52;10.70;99.90
22908;DHT22;11620;50.050;8.690;2023-03-31T09:48:39;10.70;99.90
22908;DHT22;11620;50.050;8.690;2023-03-31T09:51:31;10.90;99.90
22908;DHT22;11620;50.050;8.690;2023-03-31T09:54:22;11.30;99.90
22908;DHT22;11620;50.050;8.690;2023-03-31T09:57:31;11.70;99.90
22908;DHT22;11620;50.050;8.690;2023-03-31T10:00:20;12.00;99.90
22908;DHT22;11620;50.050;8.690;2023-03-31T10:03:13;11.40;99.90
22908;DHT22;11620;50.050;8.690;2023-03-31T10:06:00;11.20;99.90
22908;DHT22;11620;50.050;8.690;2023-03-31T10:08:58;10.80;99.90
22908;DHT22;11620;50.050;8.690;2023-03-31T10:12:05;10.80;99.90
22908;DHT22;11620;50.050;8.690;2023-03-31T10:15:17;10.60;99.90
22908;DHT22;11620;50.050;8.690;2023-03-31T10:18:00;10.30;99.90
22908;DHT22;11620;50.050;8.690;2023-03-31T10:20:50;10.40;99.90
22908;DHT22;11620;50.050;8.690;2023-03-31T10:23:37;10.30;99.90
22908;DHT22;11620;50.050;8.690;2023-03-31T10:26:27;10.00;99.90
22908;DHT22;11620;50.050;8.690;2023-03-31T10:29:22;9.80;99.90
22908;DHT22;11620;50.050;8.690;2023-03-31T10:32:17;9.80;99.90
22908;DHT22;11620;50.050;8.690;2023-03-31T10:35:11;9.80;99.90
22908;DHT22;11620;50.050;8.690;2023-03-31T10:38:57;9.70;99.90
22908;DHT22;11620;50.050;8.690;2023-03-31T10:41:38;9.40;99.90
22908;DHT22;11620;50.050;8.690;2023-03-31T10:47:20;8.40;99.90
22908;DHT22;11620;50.050;8.690;2023-03-31T10:50:14;8.20;99.90
22908;DHT22;11620;50.050;8.690;2023-03-31T10:53:13;7.90;99.90
22908;DHT22;11620;50.050;8.690;2023-03-31T10:56:13;8.10;99.90
22908;DHT22;11620;50.050;8.690;2023-03-31T11:05:51;8.20;99.90
22908;DHT22;11620;50.050;8.690;2023-03-31T11:09:41;8.20;99.90
22908;DHT22;11620;50.050;8.690;2023-03-31T11:12:16;8.60;99.90
22908;DHT22;11620;50.050;8.690;2023-03-31T11:31:35;10.10;99.90
22908;DHT22;11620;50.050;8.690;2023-03-31T11:35:39;10.60;99.90
22908;DHT22;11620;50.050;8.690;2023-03-31T11:41:12;11.30;99.90
22908;DHT22;11620;50.050;8.690;2023-03-31T11:44:03;12.00;99.90
22908;DHT22;11620;50.050;8.690;2023-03-31T11:47:05;12.20;99.90
22908;DHT22;11620;50.050;8.690;2023-03-31T11:49:58;12.20;99.90
22908;DHT22;11620;50.050;8.690;2023-03-31T11:53:12;12.10;99.90
22908;DHT22;11620;50.050;8.690;2023-03-31T11:56:01;12.10;99.90
22908;DHT22;11620;50.050;8.690;2023-03-31T11:58:54;11.90;99.90
22908;DHT22;11620;50.050;8.690;2023-03-31T12:01:55;11.70;99.90
22908;DHT22;11620;50.050;8.690;2023-03-31T12:04:46;11.50;99.90
22908;DHT22;11620;50.050;8.690;2023-03-31T12:07:40;10.80;99.90
22908;DHT22;11620;50.050;8.690;2023-03-31T12:10:36;10.80;99.90
22908;DHT22;11620;50.050;8.690;2023-03-31T12:16:44;10.90;99.90
22908;DHT22;11620;50.050;8.690;2023-03-31T12:19:47;10.90;99.90
22908;DHT22;11620;50.050;8.690;2023-03-31T12:22:41;11.10;99.90
22908;DHT22;11620;50.050;8.690;2023-03-31T12:25:54;11.10;99.90
22908;DHT22;11620;50.050;8.690;2023-03-31T12:28:43;11.30;99.90
22908;DHT22;11620;50.050;8.690;2023-03-31T12:31:31;11.40;99.90
22908;DHT22;11620;50.050;8.690;2023-03-31T12:34:21;11.50;99.90
22908;DHT22;11620;50.050;8.690;2023-03-31T12:47:27;11.10;99.90
22908;DHT22;11620;50.050;8.690;2023-03-31T12:50:56;10.90;99.90
22908;DHT22;11620;50.050;8.690;2023-03-31T13:12:13;10.70;99.90
22908;DHT22;11620;50.050;8.690;2023-03-31T13:15:03;10.70;99.90
22908;DHT22;11620;50.050;8.690;2023-03-31T13:18:06;10.80;99.90
22908;DHT22;11620;50.050;8.690;2023-03-31T13:21:00;10.90;99.90
22908;DHT22;11620;50.050;8.690;2023-03-31T13:23:47;11.10;99.90
22908;DHT22;11620;50.050;8.690;2023-03-31T13:26:39;11.10;99.90
22908;DHT22;11620;50.050;8.690;2023-03-31T13:29:40;10.90;99.90
22908;DHT22;11620;50.050;8.690;2023-03-31T13:32:27;11.30;99.90
22908;DHT22;11620;50.050;8.690;2023-03-31T13:35:24;11.40;99.90
22908;DHT22;11620;50.050;8.690;2023-03-31T13:51:09;10.70;99.90
22908;DHT22;11620;50.050;8.690;2023-03-31T13:54:27;10.70;99.90
22908;DHT22;11620;50.050;8.690;2023-03-31T14:03:21;10.70;99.90
22908;DHT22;11620;50.050;8.690;2023-03-31T14:09:33;10.90;99.90
22908;DHT22;11620;50.050;8.690;2023-03-31T14:12:35;10.80;99.90
22908;DHT22;11620;50.050;8.690;2023-03-31T14:15:22;10.70;99.90
22908;DHT22;11620;50.050;8.690;2023-03-31T14:18:12;10.90;99.90
22908;DHT22;11620;50.050;8.690;2023-03-31T14:24:28;11.30;99.90
22908;DHT22;11620;50.050;8.690;2023-03-31T14:30:31;11.70;99.90
22908;DHT22;11620;50.050;8.690;2023-03-31T14:39:08;11.80;99.90
22908;DHT22;11620;50.050;8.690;2023-03-31T14:41:59;11.70;99.90
22908;DHT22;11620;50.050;8.690;2023-03-31T14:44:47;11.80;99.90
22908;DHT22;11620;50.050;8.690;2023-03-31T14:47:34;11.70;99.90
22908;DHT22;11620;50.050;8.690;2023-03-31T14:50:21;11.50;99.90
22908;DHT22;11620;50.050;8.690;2023-03-31T14:53:16;11.30;99.90
22908;DHT22;11620;50.050;8.690;2023-03-31T14:56:06;11.10;99.90
22908;DHT22;11620;50.050;8.690;2023-03-31T14:58:53;11.20;99.90
22908;DHT22;11620;50.050;8.690;2023-03-31T15:01:40;11.30;99.90
22908;DHT22;11620;50.050;8.690;2023-03-31T15:04:31;11.20;99.90
22908;DHT22;11620;50.050;8.690;2023-03-31T15:07:21;11.00;99.90
22908;DHT22;11620;50.050;8.690;2023-03-31T15:10:15;11.10;99.90
22908;DHT22;11620;50.050;8.690;2023-03-31T15:13:50;11.00;99.90
22908;DHT22;11620;50.050;8.690;2023-03-31T15:16:41;11.00;99.90
22908;DHT22;11620;50.050;8.690;2023-03-31T15:19:30;10.80;99.90
22908;DHT22;11620;50.050;8.690;2023-03-31T15:22:18;10.70;99.90
22908;DHT22;11620;50.050;8.690;2023-03-31T15:25:04;10.40;99.90
22908;DHT22;11620;50.050;8.690;2023-03-31T15:27:58;10.30;99.90
22908;DHT22;11620;50.050;8.690;2023-03-31T15:30:48;10.40;99.90
22908;DHT22;11620;50.050;8.690;2023-03-31T15:33:35;10.30;99.90
22908;DHT22;11620;50.050;8.690;2023-03-31T15:36:27;10.10;99.90
22908;DHT22;11620;50.050;8.690;2023-03-31T15:39:15;9.80;99.90
22908;DHT22;11620;50.050;8.690;2023-03-31T15:42:03;9.70;99.90
22908;DHT22;11620;50.050;8.690;2023-03-31T15:44:56;9.80;99.90
22908;DHT22;11620;50.050;8.690;2023-03-31T15:47:51;9.60;99.90
22908;DHT22;11620;50.050;8.690;2023-03-31T15:50:38;9.70;99.90
22908;DHT22;11620;50.050;8.690;2023-03-31T15:53:47;9.80;99.90
22908;DHT22;11620;50.050;8.690;2023-03-31T15:56:43;9.70;99.90
22908;DHT22;11620;50.050;8.690;2023-03-31T15:59:42;10.00;99.90
22908;DHT22;11620;50.050;8.690;2023-03-31T16:02:41;10.10;99.90
22908;DHT22;11620;50.050;8.690;2023-03-31T16:05:37;10.00;99.90
22908;DHT22;11620;50.050;8.690;2023-03-31T16:08:38;10.00;99.90
22908;DHT22;11620;50.050;8.690;2023-03-31T16:11:37;9.90;99.90
22908;DHT22;11620;50.050;8.690;2023-03-31T16:14:31;9.80;99.90
22908;DHT22;11620;50.050;8.690;2023-03-31T16:17:32;9.70;99.90
22908;DHT22;11620;50.050;8.690;2023-03-31T16:20:26;9.60;99.90
22908;DHT22;11620;50.050;8.690;2023-03-31T16:23:40;9.60;99.90
22908;DHT22;11620;50.050;8.690;2023-03-31T16:26:27;9.40;99.90
22908;DHT22;11620;50.050;8.690;2023-03-31T16:29:21;9.30;99.90
22908;DHT22;11620;50.050;8.690;2023-03-31T16:32:16;9.20;99.90
22908;DHT22;11620;50.050;8.690;2023-03-31T16:35:04;9.00;99.90
22908;DHT22;11620;50.050;8.690;2023-03-31T16:37:54;8.90;99.90
22908;DHT22;11620;50.050;8.690;2023-03-31T16:40:42;8.80;99.90
22908;DHT22;11620;50.050;8.690;2023-03-31T16:43:29;8.70;99.90
22908;DHT22;11620;50.050;8.690;2023-03-31T16:46:16;8.90;99.90
22908;DHT22;11620;50.050;8.690;2023-03-31T16:49:02;8.80;99.90
22908;DHT22;11620;50.050;8.690;2023-03-31T16:51:49;8.90;99.90
22908;DHT22;11620;50.050;8.690;2023-03-31T16:54:35;8.90;99.90
22908;DHT22;11620;50.050;8.690;2023-03-31T16:57:21;9.00;99.90
22908;DHT22;11620;50.050;8.690;2023-03-31T17:00:08;8.80;99.90
22908;DHT22;11620;50.050;8.690;2023-03-31T17:02:56;8.80;99.90
22908;DHT22;11620;50.050;8.690;2023-03-31T17:05:51;8.70;99.90
22908;DHT22;11620;50.050;8.690;2023-03-31T17:08:39;8.70;99.90
22908;DHT22;11620;50.050;8.690;2023-03-31T17:11:25;8.70;99.90
22908;DHT22;11620;50.050;8.690;2023-03-31T17:14:12;8.80;99.90
22908;DHT22;11620;50.050;8.690;2023-03-31T17:16:58;8.80;99.90
22908;DHT22;11620;50.050;8.690;2023-03-31T17:19:45;8.80;99.90
22908;DHT22;11620;50.050;8.690;2023-03-31T17:22:32;8.80;99.90
22908;DHT22;11620;50.050;8.690;2023-03-31T17:25:18;8.80;99.90
22908;DHT22;11620;50.050;8.690;2023-03-31T17:28:05;8.90;99.90
22908;DHT22;11620;50.050;8.690;2023-03-31T17:30:52;8.90;99.90
22908;DHT22;11620;50.050;8.690;2023-03-31T17:33:38;8.80;99.90
22908;DHT22;11620;50.050;8.690;2023-03-31T17:36:25;8.80;99.90
22908;DHT22;11620;50.050;8.690;2023-03-31T17:39:11;8.80;99.90
22908;DHT22;11620;50.050;8.690;2023-03-31T17:41:58;8.80;99.90
22908;DHT22;11620;50.050;8.690;2023-03-31T17:44:44;8.80;99.90
22908;DHT22;11620;50.050;8.690;2023-03-31T17:47:32;8.80;99.90
22908;DHT22;11620;50.050;8.690;2023-03-31T17:50:19;8.80;99.90
22908;DHT22;11620;50.050;8.690;2023-03-31T17:53:05;8.80;99.90
22908;DHT22;11620;50.050;8.690;2023-03-31T17:55:54;8.80;99.90
22908;DHT22;11620;50.050;8.690;2023-03-31T17:58:40;8.70;99.90
22908;DHT22;11620;50.050;8.690;2023-03-31T18:01:26;8.90;99.90
22908;DHT22;11620;50.050;8.690;2023-03-31T18:04:14;8.90;99.90
22908;DHT22;11620;50.050;8.690;2023-03-31T18:07:00;8.80;99.90
22908;DHT22;11620;50.050;8.690;2023-03-31T18:09:47;8.60;99.90
22908;DHT22;11620;50.050;8.690;2023-03-31T18:12:34;8.60;99.90
22908;DHT22;11620;50.050;8.690;2023-03-31T18:15:21;8.50;99.90
22908;DHT22;11620;50.050;8.690;2023-03-31T18:18:07;8.50;99.90
22908;DHT22;11620;50.050;8.690;2023-03-31T18:20:55;8.50;99.90
22908;DHT22;11620;50.050;8.690;2023-03-31T18:23:41;8.40;99.90
22908;DHT22;11620;50.050;8.690;2023-03-31T18:26:27;8.50;99.90
22908;DHT22;11620;50.050;8.690;2023-03-31T18:29:14;8.60;99.90
22908;DHT22;11620;50.050;8.690;2023-03-31T18:32:00;8.40;99.90
22908;DHT22;11620;50.050;8.690;2023-03-31T18:34:47;8.40;99.90
22908;DHT22;11620;50.050;8.690;2023-03-31T18:37:33;8.30;99.90
22908;DHT22;11620;50.050;8.690;2023-03-31T18:40:20;8.30;99.90
22908;DHT22;11620;50.050;8.690;2023-03-31T18:43:07;8.30;99.90
22908;DHT22;11620;50.050;8.690;2023-03-31T18:45:54;8.40;99.90
22908;DHT22;11620;50.050;8.690;2023-03-31T18:48:41;8.40;99.90
22908;DHT22;11620;50.050;8.690;2023-03-31T18:51:27;8.40;99.90
22908;DHT22;11620;50.050;8.690;2023-03-31T18:54:14;8.30;99.90
22908;DHT22;11620;50.050;8.690;2023-03-31T18:57:00;8.40;99.90
22908;DHT22;11620;50.050;8.690;2023-03-31T18:59:47;8.40;99.90
22908;DHT22;11620;50.050;8.690;2023-03-31T19:02:33;8.30;99.90
22908;DHT22;11620;50.050;8.690;2023-03-31T19:05:19;8.30;99.90
22908;DHT22;11620;50.050;8.690;2023-03-31T19:08:06;8.30;99.90
22908;DHT22;11620;50.050;8.690;2023-03-31T19:11:06;8.20;99.90
22908;DHT22;11620;50.050;8.690;2023-03-31T19:13:53;8.30;99.90
22908;DHT22;11620;50.050;8.690;2023-03-31T19:16:40;8.20;99.90
22908;DHT22;11620;50.050;8.690;2023-03-31T19:19:29;8.20;99.90
22908;DHT22;11620;50.050;8.690;2023-03-31T19:22:15;8.40;99.90
22908;DHT22;11620;50.050;8.690;2023-03-31T19:25:02;8.40;99.90
22908;DHT22;11620;50.050;8.690;2023-03-31T19:27:48;8.40;99.90
22908;DHT22;11620;50.050;8.690;2023-03-31T19:30:35;8.30;99.90
22908;DHT22;11620;50.050;8.690;2023-03-31T19:33:22;8.20;99.90
22908;DHT22;11620;50.050;8.690;2023-03-31T19:36:08;8.20;99.90
22908;DHT22;11620;50.050;8.690;2023-03-31T19:38:55;8.20;99.90
22908;DHT22;11620;50.050;8.690;2023-03-31T19:41:41;8.30;99.90
22908;DHT22;11620;50.050;8.690;2023-03-31T19:44:28;8.30;99.90
22908;DHT22;11620;50.050;8.690;2023-03-31T19:47:14;8.40;99.90
22908;DHT22;11620;50.050;8.690;2023-03-31T19:50:01;8.30;99.90
22908;DHT22;11620;50.050;8.690;2023-03-31T19:52:47;8.40;99.90
22908;DHT22;11620;50.050;8.690;2023-03-31T19:55:34;8.40;99.90
22908;DHT22;11620;50.050;8.690;2023-03-31T19:58:22;8.40;99.90
22908;DHT22;11620;50.050;8.690;2023-03-31T20:01:20;8.40;99.90
22908;DHT22;11620;50.050;8.690;2023-03-31T20:04:07;8.50;99.90
22908;DHT22;11620;50.050;8.690;2023-03-31T20:06:53;8.50;99.90
22908;DHT22;11620;50.050;8.690;2023-03-31T20:09:40;8.50;99.90
22908;DHT22;11620;50.050;8.690;2023-03-31T20:12:27;8.50;99.90
22908;DHT22;11620;50.050;8.690;2023-03-31T20:15:13;8.50;99.90
22908;DHT22;11620;50.050;8.690;2023-03-31T20:17:59;8.50;99.90
22908;DHT22;11620;50.050;8.690;2023-03-31T20:20:46;8.60;99.90
22908;DHT22;11620;50.050;8.690;2023-03-31T20:23:33;8.60;99.90
22908;DHT22;11620;50.050;8.690;2023-03-31T20:26:22;8.60;99.90
22908;DHT22;11620;50.050;8.690;2023-03-31T20:29:10;8.60;99.90
22908;DHT22;11620;50.050;8.690;2023-03-31T20:31:57;8.50;99.90
22908;DHT22;11620;50.050;8.690;2023-03-31T20:34:43;8.60;99.90
22908;DHT22;11620;50.050;8.690;2023-03-31T20:37:29;8.60;99.90
22908;DHT22;11620;50.050;8.690;2023-03-31T20:40:16;8.60;99.90
22908;DHT22;11620;50.050;8.690;2023-03-31T20:43:02;8.60;99.90
22908;DHT22;11620;50.050;8.690;2023-03-31T20:45:53;8.50;99.90
22908;DHT22;11620;50.050;8.690;2023-03-31T20:48:44;8.50;99.90
22908;DHT22;11620;50.050;8.690;2023-03-31T20:51:33;8.50;99.90
22908;DHT22;11620;50.050;8.690;2023-03-31T20:54:20;8.50;99.90
22908;DHT22;11620;50.050;8.690;2023-03-31T20:57:06;8.50;99.90
22908;DHT22;11620;50.050;8.690;2023-03-31T20:59:52;8.40;99.90
22908;DHT22;11620;50.050;8.690;2023-03-31T21:02:39;8.40;99.90
22908;DHT22;11620;50.050;8.690;2023-03-31T21:05:26;8.40;99.90
22908;DHT22;11620;50.050;8.690;2023-03-31T21:08:13;8.40;99.90
22908;DHT22;11620;50.050;8.690;2023-03-31T21:10:59;8.40;99.90
22908;DHT22;11620;50.050;8.690;2023-03-31T21:13:46;8.40;99.90
22908;DHT22;11620;50.050;8.690;2023-03-31T21:16:33;8.30;99.90
22908;DHT22;11620;50.050;8.690;2023-03-31T21:19:20;8.20;99.90
22908;DHT22;11620;50.050;8.690;2023-03-31T21:22:06;8.20;99.90
22908;DHT22;11620;50.050;8.690;2023-03-31T21:24:53;8.10;99.90
22908;DHT22;11620;50.050;8.690;2023-03-31T21:27:40;8.10;99.90
22908;DHT22;11620;50.050;8.690;2023-03-31T21:30:26;8.20;99.90
22908;DHT22;11620;50.050;8.690;2023-03-31T21:33:13;8.10;99.90